Date,TemperatureHighF,TemperatureAvgF,TemperatureLowF,DewpointHighF,DewpointAvgF,DewpointLowF,HumidityHigh,HumidityAvg,HumidityLow,PressureMaxIn,PressureMinIn,WindSpeedMaxMPH,WindSpeedAvgMPH,GustSpeedMaxMPH,PrecipitationSumIn
2013-1-20,63.8,52.7,38.6,40.0,36.9,31.0,94,59,37,29.74,29.61,5,1,9,0.00
2013-1-21,51.9,41.6,31.9,38.0,26.3,19.0,94,59,29,29.84,29.65,4,1,9,0.00
2013-1-22,48.4,36.2,26.6,31.0,24.5,21.0,87,65,40,29.89,29.76,4,1,8,0.00
2013-1-23,68.4,46.6,31.5,49.0,38.1,28.0,96,74,48,29.81,29.64,5,0,7,0.00
2013-1-24,49.2,41.5,35.6,44.0,31.2,18.0,98,69,39,29.84,29.67,8,2,16,0.00
2013-1-25,52.1,39.5,34.2,43.0,35.9,27.0,97,87,72,29.72,29.57,2,0,5,0.00
2013-1-26,46.2,40.9,32.6,41.0,36.8,32.0,99,86,72,29.80,29.69,5,1,8,0.00
2013-1-27,64.8,52.4,43.6,60.0,50.0,41.0,100,92,80,29.70,29.52,5,1,12,0.00
2013-1-28,71.5,66.8,62.9,66.0,63.2,60.0,94,88,81,29.59,29.45,7,2,14,0.06
2013-1-29,71.1,65.2,54.1,67.0,62.9,52.0,97,92,76,29.45,28.98,7,2,15,0.47
2013-1-30,53.2,43.9,31.6,52.0,37.3,28.0,98,78,53,29.57,29.04,10,1,18,0.10
2013-1-31,62.0,43.2,26.4,34.0,28.9,24.0,97,64,24,29.81,29.55,6,1,11,0.00
2013-2-1,44.3,34.7,26.3,27.0,16.7,8.0,77,50,30,30.00,29.74,7,1,9,0.00
2013-2-2,65.4,43.9,28.5,38.0,31.3,23.0,89,65,33,29.74,29.65,4,0,8,0.00
2013-2-3,65.0,46.1,32.3,38.0,30.6,23.0,94,61,22,29.76,29.55,3,0,7,0.00
2013-2-4,49.9,47.6,42.3,47.0,40.4,31.0,95,77,51,29.55,29.37,5,0,7,0.05
2013-2-5,69.3,51.5,41.4,51.0,44.6,38.0,100,82,32,29.55,29.41,3,0,5,0.00
2013-2-6,54.6,47.3,36.5,51.0,44.9,36.0,99,91,82,29.64,29.50,4,1,8,0.00
2013-2-7,60.6,54.6,49.7,57.0,52.8,48.0,99,93,87,29.49,29.37,3,0,4,0.04
2013-2-8,60.1,50.4,39.9,53.0,41.2,35.0,97,73,40,29.75,29.44,5,1,9,0.04
2013-2-9,48.3,42.2,34.4,44.0,37.2,32.0,95,83,67,29.76,29.43,5,2,10,0.04
2013-2-10,69.4,56.4,42.7,60.0,47.7,36.0,99,76,35,29.48,29.21,6,1,10,0.63
2013-2-11,60.7,49.4,40.1,39.0,34.2,28.0,87,60,30,29.66,29.50,3,0,7,0.00
2013-2-12,44.3,41.0,33.9,42.0,39.2,32.0,98,93,82,29.62,29.33,5,1,9,0.40
2013-2-13,55.0,43.6,36.7,41.0,38.8,36.0,97,85,53,29.55,29.37,4,0,7,0.03
2013-2-14,66.8,46.8,31.4,42.0,36.8,31.0,99,74,33,29.57,29.48,5,1,9,0.00
2013-2-15,56.2,50.0,38.4,41.0,31.1,23.0,94,55,28,30.32,29.57,4,-392,7,0.01
2013-2-16,56.2,46.4,29.6,25.0,21.9,14.0,80,40,27,30.36,30.24,6,-397,9,0.00
2013-2-17,66.0,47.7,28.5,39.0,30.3,22.0,87,54,32,30.25,29.98,5,1,9,0.00
2013-2-18,61.3,53.8,44.4,57.0,47.8,39.0,95,81,58,30.02,29.65,9,2,18,0.60
2013-2-19,58.4,43.4,31.4,38.0,28.8,24.0,92,61,27,30.30,30.02,5,1,7,0.00
2013-2-20,38.4,33.8,31.5,31.0,28.4,21.0,94,82,50,30.33,30.08,5,1,13,0.01
2013-2-21,36.2,33.5,31.7,36.0,32.3,30.0,99,95,89,30.09,29.73,3,1,8,0.00
2013-2-22,51.3,39.8,32.3,37.0,34.1,30.0,99,82,51,30.10,29.90,5,0,7,0.00
2013-2-23,56.9,40.2,28.3,36.0,31.7,27.0,96,75,42,30.09,29.92,3,1,9,0.00
2013-2-24,61.5,44.3,28.7,38.0,33.5,28.0,98,70,36,30.05,29.83,9,2,11,0.00
2013-2-25,48.4,45.9,43.2,47.0,41.0,35.0,99,84,62,29.82,29.38,7,2,15,0.13
2013-2-26,45.1,41.2,33.9,45.0,37.0,32.0,99,85,73,29.88,29.39,8,2,11,0.00
2013-2-27,52.8,40.4,29.9,38.0,33.1,29.0,99,77,50,30.07,29.87,5,1,9,0.00
2013-2-28,57.1,42.9,31.0,32.0,29.0,26.0,88,61,32,30.14,30.07,6,1,10,0.00
2013-3-1,46.1,37.9,30.3,30.0,26.5,22.0,89,65,47,30.23,30.13,5,1,10,0.00
2013-3-2,48.5,36.1,28.2,25.0,23.3,21.0,81,62,37,30.31,30.21,4,0,10,0.00
2013-3-3,57.6,40.4,23.3,31.0,26.5,21.0,94,62,34,30.25,29.93,6,1,11,0.00
2013-3-4,72.4,54.8,42.9,55.0,45.3,31.0,88,71,51,29.93,29.61,5,1,12,0.00
2013-3-5,59.9,49.5,35.7,56.0,33.9,20.0,91,59,25,30.26,29.71,6,1,16,0.01
2013-3-6,57.0,43.5,31.4,32.0,24.7,21.0,72,50,28,30.38,30.25,5,1,8,0.00
2013-3-7,63.4,48.4,37.9,35.0,32.4,30.0,85,57,30,30.35,30.20,7,1,10,0.00
2013-3-8,66.4,51.7,34.6,46.0,36.1,32.0,92,60,33,30.32,30.12,7,2,10,0.01
2013-3-9,70.6,59.5,47.0,58.0,50.4,42.0,88,73,54,30.11,29.79,7,2,13,0.01
2013-3-10,64.1,55.8,42.9,60.0,50.8,36.0,97,84,56,29.93,29.63,12,2,15,0.46
2013-3-11,56.9,43.9,34.4,36.0,29.7,25.0,79,60,33,30.05,29.91,5,1,10,0.00
2013-3-12,67.4,48.3,29.8,39.0,33.0,28.0,96,61,29,30.26,30.05,4,1,8,0.00
2013-3-13,65.2,49.6,33.0,36.0,24.0,13.0,79,42,15,30.44,30.27,6,1,8,0.00
2013-3-14,71.0,52.3,31.6,43.0,35.2,28.0,90,57,28,30.40,30.14,6,1,11,0.00
2013-3-15,79.6,62.9,46.0,53.0,47.8,42.0,91,62,35,30.16,29.86,8,2,15,0.00
2013-3-16,78.7,67.7,58.3,55.0,52.2,48.0,81,59,39,29.88,29.73,6,2,10,0.00
2013-3-17,66.1,57.6,47.9,60.0,53.0,47.0,96,85,61,29.81,29.66,5,1,8,0.01
2013-3-18,65.0,53.9,43.7,55.0,48.8,41.0,98,84,53,30.03,29.67,4,0,8,0.16
2013-3-19,61.7,47.7,35.2,42.0,34.2,25.0,99,66,30,30.17,30.01,7,1,11,0.00
2013-3-20,64.7,49.1,33.4,35.0,29.0,24.0,85,50,24,30.28,30.08,5,1,10,0.00
2013-3-21,47.1,40.6,36.8,37.0,25.9,17.0,93,59,33,30.09,29.83,9,2,13,0.22
2013-3-22,44.1,41.5,38.3,43.0,40.5,36.0,97,96,92,29.89,29.80,5,1,8,0.33
2013-3-23,47.4,44.3,41.8,47.0,43.7,41.0,99,98,96,29.89,29.68,3,1,7,0.19
2013-3-24,46.8,42.4,34.3,47.0,36.2,25.0,99,80,64,30.07,29.63,8,2,13,0.09
2013-3-25,48.1,38.4,30.8,25.0,23.2,21.0,74,56,37,30.33,30.07,8,2,13,0.00
2013-3-26,54.6,39.8,28.8,28.0,23.7,21.0,81,56,29,30.42,30.31,5,1,8,0.00
2013-3-27,63.4,44.3,26.7,33.0,29.1,25.0,97,62,27,30.39,30.19,9,1,9,0.00
2013-3-28,71.4,55.2,39.3,50.0,42.8,32.0,88,65,44,30.29,30.14,6,1,9,0.00
2013-3-29,66.3,59.0,50.4,59.0,53.8,42.0,98,83,58,30.18,30.07,4,0,7,0.06
2013-3-30,66.3,59.2,55.4,60.0,57.1,55.0,98,93,78,30.12,29.90,3,0,6,0.29
2013-3-31,69.4,59.8,50.7,59.0,56.3,50.0,99,89,62,29.94,29.84,4,0,6,0.28
2013-4-1,76.7,60.5,44.7,56.0,49.2,44.0,100,72,35,30.08,29.94,4,1,8,0.00
2013-4-2,57.3,47.7,39.1,50.0,40.0,33.0,96,76,51,30.20,30.07,5,1,11,0.76
2013-4-3,48.4,43.7,38.0,38.0,33.0,26.0,96,68,44,30.20,30.11,7,2,13,0.01
2013-4-4,46.9,44.7,41.5,45.0,40.7,33.0,98,87,59,30.12,30.04,2,0,4,0.54
2013-4-5,71.9,51.9,36.9,47.0,40.3,36.0,99,72,27,30.20,30.05,6,1,7,0.00
2013-4-6,77.0,59.4,43.6,51.0,46.1,42.0,94,66,34,30.07,29.84,9,1,16,0.00
2013-4-7,72.1,65.6,59.3,59.0,56.4,51.0,85,73,60,29.97,29.82,5,1,9,0.00
2013-4-8,81.2,70.0,61.9,63.0,59.2,56.0,86,70,48,29.87,29.73,8,2,12,0.00
2013-4-9,85.7,75.0,66.2,69.0,63.1,59.0,86,68,45,29.85,29.73,11,3,16,0.00
2013-4-10,80.3,68.1,44.0,70.0,63.5,42.0,96,86,69,29.83,29.51,12,2,15,0.38
2013-4-11,63.7,48.4,40.3,43.0,38.8,34.0,95,72,36,29.83,29.71,4,1,7,0.16
2013-4-12,76.4,54.1,37.0,44.0,39.7,34.0,98,64,25,29.98,29.83,7,1,8,0.01
2013-4-13,78.2,60.8,42.1,52.0,44.6,39.0,94,60,32,30.07,29.84,6,1,8,0.00
2013-4-14,79.8,67.1,54.3,59.0,54.8,51.0,91,67,44,29.84,29.58,11,1,11,0.00
2013-4-15,81.9,69.4,61.2,67.0,63.2,59.0,95,82,57,29.84,29.70,5,1,10,0.00
2013-4-16,87.8,77.3,71.0,71.0,68.9,67.0,92,77,52,29.95,29.80,8,1,11,0.00
2013-4-17,86.0,78.0,72.6,71.0,69.4,66.0,92,76,53,29.96,29.71,8,2,14,0.00
2013-4-18,77.1,61.7,44.5,69.0,57.8,39.0,97,87,75,29.96,29.63,7,2,12,1.04
2013-4-19,60.7,48.4,36.7,39.0,34.0,28.0,90,61,32,30.15,29.96,4,1,11,0.13
2013-4-20,70.6,53.6,35.4,46.0,39.2,34.0,99,65,30,30.24,30.10,5,1,8,0.00
2013-4-21,72.2,58.4,44.8,48.0,42.6,36.0,95,62,28,30.27,30.12,5,1,10,0.00
2013-4-22,77.4,60.9,41.8,50.0,45.3,41.0,98,62,31,30.18,29.93,7,1,10,0.00
2013-4-23,75.5,62.5,50.7,62.0,54.9,45.0,97,77,62,29.98,29.83,5,1,11,0.00
2013-4-24,64.5,50.9,42.0,45.0,41.3,37.0,95,73,37,30.29,29.99,4,1,7,0.18
2013-4-25,72.5,54.4,36.8,46.0,40.5,36.0,98,66,28,30.37,30.23,5,1,9,0.00
2013-4-26,61.8,54.4,49.4,55.0,50.0,45.0,98,86,58,30.27,30.12,5,0,7,0.16
2013-4-27,77.3,61.3,54.4,70.0,59.5,54.0,100,94,72,30.13,29.91,4,0,9,0.20
2013-4-28,78.8,62.5,53.5,59.0,54.6,52.0,97,78,42,30.00,29.87,3,0,7,0.02
2013-4-29,85.8,67.4,50.3,67.0,58.1,50.0,99,76,40,29.93,29.79,6,1,7,0.00
2013-4-30,85.7,70.6,55.5,64.0,57.5,51.0,99,69,33,29.87,29.78,7,1,10,0.00
2013-5-1,74.8,67.6,60.7,69.0,62.7,59.0,98,85,67,29.99,29.85,5,1,11,0.01
2013-5-2,71.2,62.6,48.6,65.0,59.1,47.0,94,88,77,30.08,29.98,3,0,7,0.02
2013-5-3,58.0,46.2,39.5,47.0,40.7,35.0,96,83,46,30.07,29.96,5,1,9,0.09
2013-5-4,52.8,44.4,37.0,45.0,40.0,36.0,99,86,53,29.96,29.87,4,0,5,0.01
2013-5-5,67.6,52.6,38.0,49.0,42.4,37.0,98,72,40,30.04,29.94,6,1,10,0.01
2013-5-6,75.4,61.2,49.6,57.0,52.5,48.0,95,75,49,30.00,29.92,4,0,8,0.00
2013-5-7,81.5,65.6,50.7,60.0,54.9,50.0,99,73,40,30.03,29.94,3,0,5,0.00
2013-5-8,85.3,69.5,52.9,62.0,57.6,52.0,99,70,41,30.03,29.91,3,0,7,0.00
2013-5-9,77.1,69.4,64.1,67.0,63.3,59.0,98,82,59,30.04,29.86,5,1,8,0.16
2013-5-10,80.9,67.4,62.0,69.0,64.6,62.0,100,91,55,29.97,29.84,2,0,5,0.41
2013-5-11,79.8,66.5,55.3,62.0,55.8,48.0,100,73,34,30.09,29.96,4,1,8,0.01
2013-5-12,76.4,61.9,47.0,50.0,43.9,36.0,86,56,28,30.23,30.10,5,1,8,0.00
2013-5-13,83.2,64.8,47.1,55.0,50.0,46.0,98,65,30,30.23,30.07,5,1,9,0.00
2013-5-14,88.4,71.8,54.4,63.0,56.7,53.0,95,63,32,30.11,29.99,6,1,10,0.00
2013-5-15,78.0,69.6,61.6,68.0,60.4,51.0,95,74,53,30.05,29.90,5,1,8,0.12
2013-5-16,69.2,65.6,61.6,68.0,64.8,60.0,99,97,93,29.91,29.80,2,0,8,0.50
2013-5-17,83.2,72.4,65.5,73.0,69.2,66.0,100,90,65,29.90,29.79,2,0,6,0.09
2013-5-18,87.2,76.8,68.7,75.0,71.8,68.0,100,86,65,29.94,29.82,6,1,7,0.00
2013-5-19,87.7,78.9,69.8,73.0,70.5,69.0,98,77,56,29.88,29.73,12,2,12,0.00
2013-5-20,87.7,79.5,69.7,73.0,71.0,63.0,88,76,57,29.87,29.71,8,2,14,0.01
2013-5-21,69.9,64.7,62.0,69.0,64.1,62.0,99,97,89,29.88,29.65,5,1,10,1.69
2013-5-22,82.8,69.6,59.6,68.0,63.2,59.0,100,82,48,29.91,29.79,5,1,7,0.08
2013-5-23,85.6,70.8,58.1,69.0,63.9,58.0,100,81,51,30.07,29.91,3,0,4,0.00
2013-5-24,77.3,69.0,61.4,66.0,59.5,56.0,95,73,54,30.24,30.06,4,1,11,0.00
2013-5-25,84.6,71.1,58.5,68.0,61.0,55.0,91,72,49,30.23,30.07,5,1,7,0.00
2013-5-26,87.4,72.0,65.4,72.0,67.3,65.0,99,86,59,30.12,30.01,4,0,16,0.56
2013-5-27,85.7,74.3,64.7,71.0,67.7,64.0,100,82,55,30.03,29.86,7,1,12,0.01
2013-5-28,86.6,77.6,70.9,71.0,68.3,67.0,90,74,53,29.93,29.84,7,1,11,0.00
2013-5-29,85.1,77.8,71.5,71.0,68.8,67.0,89,75,58,29.93,29.79,5,1,10,0.00
2013-5-30,78.8,74.4,70.1,73.0,71.6,69.0,99,91,80,29.89,29.75,4,1,14,1.38
2013-5-31,88.8,79.6,68.9,77.0,74.4,68.0,99,85,66,29.88,29.68,5,2,11,0.46
2013-6-1,80.1,71.3,65.8,76.0,69.9,65.0,100,95,86,29.93,29.76,4,1,9,2.02
2013-6-2,82.3,70.1,62.5,68.0,64.2,61.0,100,83,53,29.98,29.89,3,0,7,0.01
2013-6-3,84.2,69.7,57.0,66.0,61.4,57.0,99,77,48,30.00,29.87,5,1,7,0.00
2013-6-4,82.9,71.2,59.1,68.0,63.9,59.0,100,80,53,29.99,29.87,3,0,8,0.00
2013-6-5,89.7,74.8,63.3,74.0,68.6,63.0,100,82,49,29.94,29.74,3,0,11,0.02
2013-6-6,75.8,71.1,66.5,70.0,67.7,66.0,99,89,78,29.88,29.77,2,0,5,0.00
2013-6-7,83.2,72.2,62.7,67.0,61.9,56.0,93,72,41,29.90,29.82,4,0,7,0.00
2013-6-8,85.2,71.5,57.7,65.0,61.0,57.0,100,73,41,29.94,29.84,5,0,8,0.00
2013-6-9,83.9,72.9,63.7,73.0,68.7,63.0,99,87,65,29.90,29.81,5,0,7,0.06
2013-6-10,93.8,79.1,67.0,74.0,70.1,67.0,100,77,45,29.91,29.85,5,1,8,0.00
2013-6-11,94.6,82.2,70.1,76.0,73.3,69.0,99,76,51,29.99,29.90,4,1,8,0.00
2013-6-12,93.7,82.9,73.0,76.0,74.0,72.0,97,76,51,30.01,29.89,5,1,8,0.00
2013-6-13,98.6,84.9,73.1,80.0,75.2,71.0,97,75,49,29.95,29.82,3,1,8,0.00
2013-6-14,89.8,80.7,71.9,72.0,70.0,68.0,89,71,53,29.99,29.89,4,1,8,0.00
2013-6-15,89.9,77.7,65.3,70.0,67.8,64.0,98,74,48,30.01,29.90,4,1,8,0.00
2013-6-16,90.8,78.5,72.0,78.0,73.2,69.0,98,85,55,30.01,29.86,6,0,7,0.07
2013-6-17,87.6,76.0,71.0,76.0,72.9,71.0,100,91,64,29.94,29.82,3,0,7,0.13
2013-6-18,86.2,75.4,68.0,73.0,70.3,68.0,100,86,57,29.96,29.83,3,0,8,0.01
2013-6-19,88.8,76.2,63.7,72.0,68.1,63.0,100,79,51,30.00,29.92,4,0,8,0.00
2013-6-20,93.0,79.9,67.0,75.0,71.2,67.0,100,77,48,30.06,29.96,5,0,6,0.00
2013-6-21,94.2,82.6,72.6,77.0,74.0,71.0,98,77,50,30.07,29.97,3,0,8,0.00
2013-6-22,93.0,81.9,72.8,76.0,73.6,71.0,99,78,54,30.05,29.92,3,1,8,0.00
2013-6-23,94.4,82.6,72.3,77.0,72.6,69.0,98,74,45,30.00,29.91,4,1,8,0.00
2013-6-24,93.5,82.7,71.5,76.0,72.8,70.0,98,74,50,30.05,29.93,4,1,8,0.00
2013-6-25,92.9,83.6,76.0,75.0,73.5,72.0,91,73,52,30.00,29.85,5,1,9,0.00
2013-6-26,94.3,84.3,75.2,76.0,73.4,72.0,93,71,49,29.93,29.82,4,1,11,0.00
2013-6-27,101.7,86.1,73.7,79.0,75.3,72.0,98,73,41,29.93,29.81,4,1,7,0.00
2013-6-28,99.6,87.4,78.3,77.0,71.4,60.0,88,62,28,29.86,29.70,4,1,8,0.00
2013-6-29,94.1,82.2,68.7,69.0,61.8,55.0,89,54,27,29.78,29.69,4,1,10,0.00
2013-6-30,84.9,74.9,64.5,64.0,61.2,58.0,86,64,45,29.85,29.73,7,1,10,0.00
2013-7-1,87.0,75.4,64.6,64.0,60.4,55.0,88,62,36,29.95,29.85,5,1,9,0.00
2013-7-2,87.8,74.3,60.7,63.0,58.1,52.0,94,61,30,30.02,29.93,5,1,9,0.00
2013-7-3,87.2,74.0,60.1,62.0,59.0,54.0,93,63,38,30.06,29.95,8,1,8,0.00
2013-7-4,90.3,75.5,60.0,63.0,59.5,55.0,94,62,32,30.01,29.90,3,0,7,0.00
2013-7-5,92.3,77.2,61.1,65.0,60.9,58.0,95,62,33,30.01,29.89,3,0,8,0.00
2013-7-6,92.4,77.3,64.9,72.0,66.4,59.0,98,73,33,29.98,29.89,8,1,9,0.00
2013-7-7,94.5,81.4,68.6,74.0,70.0,67.0,96,71,45,30.01,29.93,7,1,8,0.00
2013-7-8,95.9,82.2,71.1,76.0,72.3,70.0,97,75,45,30.08,29.98,3,1,7,0.00
2013-7-9,96.7,85.8,75.3,74.0,71.8,68.0,88,65,44,30.08,29.94,7,1,8,0.00
2013-7-10,100.2,82.4,72.4,76.0,72.2,70.0,97,73,41,30.01,29.85,6,1,11,0.31
2013-7-11,96.0,79.6,70.5,78.0,73.2,68.0,100,83,51,29.93,29.84,3,0,14,0.00
2013-7-12,93.6,79.6,68.5,73.0,64.9,53.0,94,65,29,30.01,29.90,7,1,9,0.00
2013-7-13,90.0,76.2,61.3,65.0,61.6,59.0,95,64,36,30.00,29.90,5,1,8,0.00
2013-7-14,88.6,75.6,63.1,72.0,65.7,60.0,97,75,40,29.99,29.91,5,1,10,0.03
2013-7-15,92.5,78.9,68.3,75.0,70.6,68.0,99,78,46,30.10,29.97,5,1,10,0.01
2013-7-16,91.6,81.8,72.4,75.0,71.9,70.0,95,74,51,30.19,30.10,5,1,11,0.00
2013-7-17,94.8,82.6,70.8,75.0,70.7,68.0,97,70,43,30.24,30.10,5,1,9,0.00
2013-7-18,98.1,79.8,70.7,73.0,70.4,67.0,98,77,37,30.15,29.96,5,0,7,0.07
2013-7-19,92.2,77.0,70.7,78.0,73.3,70.0,99,89,58,30.02,29.90,5,1,7,0.24
2013-7-20,92.8,80.0,71.1,78.0,73.3,71.0,99,82,51,29.94,29.81,3,0,7,0.00
2013-7-21,90.4,80.8,71.3,77.0,73.6,71.0,99,80,59,29.92,29.82,4,0,12,0.00
2013-7-22,94.8,83.6,77.0,78.0,75.4,73.0,89,77,55,29.93,29.82,5,1,8,0.00
2013-7-23,97.6,79.3,70.8,78.0,74.3,69.0,99,86,51,29.93,29.79,5,1,11,0.95
2013-7-24,88.7,77.2,70.1,75.0,72.1,70.0,100,86,59,29.94,29.79,4,0,8,0.45
2013-7-25,85.5,77.9,70.6,73.0,71.1,68.0,100,81,61,30.04,29.94,3,0,8,0.00
2013-7-26,74.0,69.6,67.0,70.0,68.1,66.0,99,95,78,30.04,29.89,2,0,5,1.00
2013-7-27,89.1,74.8,66.3,72.0,68.8,66.0,100,84,54,29.97,29.88,3,0,5,0.03
2013-7-28,87.9,77.1,65.9,74.0,69.5,65.0,98,79,57,30.00,29.92,3,0,7,0.00
2013-7-29,90.4,78.6,68.8,78.0,73.1,68.0,98,84,63,30.06,29.97,4,1,7,0.00
2013-7-30,85.8,80.0,75.8,77.0,75.0,73.0,96,85,70,30.05,29.96,3,0,7,0.00
2013-7-31,93.5,80.5,72.8,80.0,75.8,72.0,99,87,60,30.03,29.88,9,0,10,0.32
2013-8-1,93.8,79.4,71.2,78.0,74.2,71.0,100,86,53,30.01,29.92,3,0,8,0.00
2013-8-2,90.7,79.9,69.7,80.0,74.4,69.0,99,84,69,29.97,29.88,6,1,7,0.00